createdAt,value
2023-02-16T00:00:27.189Z,100864.41
2023-02-16T00:02:54.195Z,100863.47
2023-02-16T00:05:33.349Z,100865.94
2023-02-16T00:08:01.313Z,100862.47
2023-02-16T00:10:33.316Z,100874.34
2023-02-16T00:13:19.472Z,100863.16
2023-02-16T00:15:46.931Z,100865.63
2023-02-16T00:18:19.798Z,100862.25
2023-02-16T00:20:48.188Z,100864.88
2023-02-16T00:23:20.043Z,100858.88
2023-02-16T00:25:50.680Z,100857.16
2023-02-16T00:28:20.648Z,100853.00
2023-02-16T00:30:48.132Z,100861.66
2023-02-16T00:33:21.448Z,100860.69
2023-02-16T00:35:48.872Z,100856.47
2023-02-16T00:38:16.602Z,100852.22
2023-02-16T00:40:43.994Z,100847.84
2023-02-16T00:43:37.413Z,100853.84
2023-02-16T00:46:05.887Z,100852.22
2023-02-16T00:48:34.279Z,100847.25
2023-02-16T00:51:01.547Z,100848.97
2023-02-16T00:53:28.681Z,100848.16
2023-02-16T00:55:55.748Z,100845.56
2023-02-16T00:58:26.950Z,100848.34
2023-02-16T01:00:58.287Z,100844.56
2023-02-16T01:03:27.319Z,100849.31
2023-02-16T01:06:14.336Z,100831.53
2023-02-16T01:09:00.457Z,100850.19
2023-02-16T01:11:27.905Z,100846.84
2023-02-16T01:13:57.108Z,100850.28
2023-02-16T01:16:39.359Z,100846.88
2023-02-16T01:19:07.732Z,100852.75
2023-02-16T01:21:34.729Z,100846.81
2023-02-16T01:24:02.264Z,100854.53
2023-02-16T01:26:30.171Z,100848.56
2023-02-16T01:28:57.086Z,100849.41
2023-02-16T01:31:24.240Z,100857.97
2023-02-16T01:33:51.278Z,100850.28
2023-02-16T01:36:35.232Z,100856.31
2023-02-16T01:39:02.790Z,100851.19
2023-02-16T01:41:32.771Z,100853.31
2023-02-16T01:44:12.084Z,100854.94
2023-02-16T01:47:05.605Z,100859.97
2023-02-16T01:49:32.794Z,100860.91
2023-02-16T01:52:30.043Z,100859.31
2023-02-16T01:55:06.227Z,100860.19
2023-02-16T01:57:47.586Z,100855.13
2023-02-16T02:00:51.997Z,100858.81
2023-02-16T02:03:47.669Z,100857.72
2023-02-16T02:06:19.999Z,100856.13
2023-02-16T02:09:04.595Z,100848.53
2023-02-16T02:11:46.673Z,100857.75
2023-02-16T02:14:19.354Z,100861.19
2023-02-16T02:17:00.529Z,100859.53
2023-02-16T02:19:36.685Z,100858.84
2023-02-16T02:22:51.565Z,100864.75
2023-02-16T02:25:35.895Z,100865.75
2023-02-16T02:28:15.204Z,100862.25
2023-02-16T02:31:37.630Z,100866.53
2023-02-16T02:34:19.436Z,100866.56
2023-02-16T02:36:59.198Z,100856.34
2023-02-16T02:39:57.470Z,100860.78
2023-02-16T02:42:38.329Z,100863.41
2023-02-16T02:45:16.910Z,100861.75
2023-02-16T02:47:47.699Z,100864.28
2023-02-16T02:51:20.158Z,100867.63
2023-02-16T02:54:12.778Z,100866.81
2023-02-16T02:57:24.551Z,100867.66
2023-02-16T03:00:31.646Z,100871.09
2023-02-16T03:03:06.525Z,100871.22
2023-02-16T03:05:35.526Z,100880.56
2023-02-16T03:08:14.413Z,100872.03
2023-02-16T03:11:14.439Z,100866.03
2023-02-16T03:13:47.186Z,100865.22
2023-02-16T03:16:20.661Z,100867.72
2023-02-16T03:19:06.831Z,100864.47
2023-02-16T03:21:54.157Z,100859.34
2023-02-16T03:24:47.933Z,100852.50
2023-02-16T03:27:38.787Z,100845.78
2023-02-16T03:30:07.893Z,100850.19
2023-02-16T03:32:35.276Z,100854.44
2023-02-16T03:35:02.318Z,100851.16
2023-02-16T03:37:30.156Z,100851.22
2023-02-16T03:40:15.536Z,100852.19
2023-02-16T03:42:49.636Z,100849.69
2023-02-16T03:45:17.118Z,100856.53
2023-02-16T03:47:44.031Z,100846.38
2023-02-16T03:50:11.128Z,100848.91
2023-02-16T03:52:38.144Z,100851.41
2023-02-16T03:55:05.353Z,100850.56
2023-02-16T03:57:32.323Z,100862.34
2023-02-16T03:59:59.452Z,100851.28
2023-02-16T04:02:28.673Z,100850.38
2023-02-16T04:04:55.764Z,100852.91
2023-02-16T04:07:22.785Z,100851.88
2023-02-16T04:09:49.693Z,100849.25
2023-02-16T04:12:35.378Z,100844.28
2023-02-16T04:15:05.764Z,100846.00
2023-02-16T04:17:33.215Z,100840.84
2023-02-16T04:20:00.242Z,100843.50
2023-02-16T04:22:27.284Z,100849.38
2023-02-16T04:24:54.206Z,100841.78
2023-02-16T04:27:21.230Z,100838.59
2023-02-16T04:29:48.139Z,100843.53
2023-02-16T04:32:15.272Z,100846.06
2023-02-16T04:34:42.239Z,100852.19
2023-02-16T04:37:09.245Z,100847.94
2023-02-16T04:39:36.540Z,100843.59
2023-02-16T04:42:04.435Z,100840.13
2023-02-16T04:44:31.408Z,100838.38
2023-02-16T04:46:58.345Z,100834.97
2023-02-16T04:49:25.358Z,100829.84
2023-02-16T04:51:52.479Z,100834.03
2023-02-16T04:54:19.540Z,100838.31
2023-02-16T04:56:47.626Z,100833.25
2023-02-16T04:59:15.877Z,100836.59
2023-02-16T05:01:43.493Z,100839.22
2023-02-16T05:04:11.178Z,100838.31
2023-02-16T05:06:39.499Z,100834.13
2023-02-16T05:09:07.925Z,100835.03
2023-02-16T05:11:53.674Z,100842.66
2023-02-16T05:14:47.455Z,100845.13
2023-02-16T05:17:17.638Z,100851.09
2023-02-16T05:19:47.692Z,100837.56
2023-02-16T05:22:15.038Z,100847.72
2023-02-16T05:24:43.312Z,100851.13
2023-02-16T05:27:14.367Z,100854.50
2023-02-16T05:29:41.357Z,100853.59
2023-02-16T05:32:08.512Z,100845.06
2023-02-16T05:34:35.459Z,100853.56
2023-02-16T05:37:02.605Z,100852.72
2023-02-16T05:39:29.523Z,100853.47
2023-02-16T05:41:56.645Z,100850.78
2023-02-16T05:44:24.025Z,100854.97
2023-02-16T05:46:51.094Z,100849.75
2023-02-16T05:49:18.532Z,100849.13
2023-02-16T05:51:46.004Z,100850.88
2023-02-16T05:54:17.559Z,100831.41
2023-02-16T05:56:50.215Z,100849.84
2023-02-16T05:59:17.824Z,100837.03
2023-02-16T06:01:49.408Z,100843.75
2023-02-16T06:04:18.062Z,100856.41
2023-02-16T06:06:45.205Z,100855.44
2023-02-16T06:09:12.621Z,100855.31
2023-02-16T06:11:40.133Z,100856.97
2023-02-16T06:14:08.481Z,100855.19
2023-02-16T06:16:37.005Z,100856.22
2023-02-16T06:19:04.541Z,100847.66
2023-02-16T06:21:31.823Z,100844.94
2023-02-16T06:23:58.947Z,100848.13
2023-02-16T06:26:26.326Z,100840.09
2023-02-16T06:28:54.105Z,100843.59
2023-02-16T06:31:22.143Z,100840.69
2023-02-16T06:33:49.426Z,100843.44
2023-02-16T06:36:16.851Z,100842.13
2023-02-16T06:38:44.219Z,100838.47
2023-02-16T06:41:11.985Z,100844.75
2023-02-16T06:43:38.919Z,100843.81
2023-02-16T06:46:05.924Z,100840.19
2023-02-16T06:48:32.850Z,100837.53
2023-02-16T06:50:59.921Z,100846.78
2023-02-16T06:53:26.862Z,100834.50
2023-02-16T06:55:53.794Z,100839.44
2023-02-16T06:58:20.787Z,100845.16
2023-02-16T07:00:48.269Z,100839.19
2023-02-16T07:03:15.327Z,100844.38
2023-02-16T07:05:44.222Z,100841.81
2023-02-16T07:08:11.226Z,100839.91
2023-02-16T07:10:49.447Z,100843.25
2023-02-16T07:13:16.978Z,100836.91
2023-02-16T07:15:44.101Z,100832.56
2023-02-16T07:18:11.008Z,100832.34
2023-02-16T07:20:38.165Z,100836.56
2023-02-16T07:23:05.095Z,100828.31
2023-02-16T07:25:32.000Z,100835.13
2023-02-16T07:27:59.026Z,100834.25
2023-02-16T07:30:25.946Z,100830.38
2023-02-16T07:32:52.924Z,100830.97
2023-02-16T07:35:20.035Z,100824.59
2023-02-16T07:37:46.963Z,100828.97
2023-02-16T07:40:13.913Z,100822.88
2023-02-16T07:42:40.874Z,100828.41
2023-02-16T07:45:09.677Z,100820.56
2023-02-16T07:47:36.629Z,100833.25
2023-02-16T07:50:03.986Z,100829.88
2023-02-16T07:52:31.436Z,100829.75
2023-02-16T07:54:59.270Z,100822.09
2023-02-16T07:57:28.280Z,100818.34
2023-02-16T07:59:56.066Z,100821.41
2023-02-16T08:02:23.769Z,100816.19
2023-02-16T08:04:52.954Z,100811.78
2023-02-16T08:07:20.768Z,100817.69
2023-02-16T08:09:47.797Z,100819.94
2023-02-16T08:12:16.316Z,100817.22
2023-02-16T08:14:44.265Z,100816.47
2023-02-16T08:17:11.346Z,100815.75
2023-02-16T08:19:38.361Z,100817.00
2023-02-16T08:22:06.797Z,100822.13
2023-02-16T08:24:34.278Z,100817.03
2023-02-16T08:27:03.935Z,100816.66
2023-02-16T08:29:31.489Z,100815.47
2023-02-16T08:31:58.771Z,100818.88
2023-02-16T08:34:26.486Z,100815.28
2023-02-16T08:36:57.617Z,100815.22
2023-02-16T08:39:30.058Z,100817.03
2023-02-16T08:41:58.364Z,100810.81
2023-02-16T08:44:26.237Z,100810.88
2023-02-16T08:46:55.541Z,100813.16
2023-02-16T08:49:24.197Z,100804.81
2023-02-16T08:51:54.900Z,100807.78
2023-02-16T08:54:27.166Z,100812.63
2023-02-16T08:56:55.807Z,100811.53
2023-02-16T08:59:26.557Z,100810.53
2023-02-16T09:01:54.963Z,100811.31
2023-02-16T09:04:22.030Z,100804.38
2023-02-16T09:06:49.185Z,100808.84
2023-02-16T09:09:16.968Z,100801.78
2023-02-16T09:11:44.258Z,100804.22
2023-02-16T09:14:11.147Z,100806.78
2023-02-16T09:16:39.993Z,100812.22
2023-02-16T09:19:07.372Z,100791.97
2023-02-16T09:21:34.473Z,100801.75
2023-02-16T09:24:04.022Z,100799.47
2023-02-16T09:26:33.418Z,100797.03
2023-02-16T09:29:02.043Z,100797.97
2023-02-16T09:31:32.755Z,100790.47
2023-02-16T09:34:12.889Z,100798.81
2023-02-16T09:36:39.931Z,100781.75
2023-02-16T09:39:08.176Z,100791.00
2023-02-16T09:41:41.196Z,100787.44
2023-02-16T09:44:33.405Z,100778.22
2023-02-16T09:47:05.031Z,100785.06
2023-02-16T09:49:41.373Z,100779.06
2023-02-16T09:52:08.301Z,100783.41
2023-02-16T09:54:49.323Z,100785.31
2023-02-16T09:57:31.578Z,100779.41
2023-02-16T10:00:04.715Z,100774.69
2023-02-16T10:02:42.762Z,100781.53
2023-02-16T10:05:31.250Z,100783.41
2023-02-16T10:08:07.808Z,100792.06
2023-02-16T10:10:53.583Z,100780.34
2023-02-16T10:13:32.125Z,100781.09
2023-02-16T10:16:03.105Z,100774.47
2023-02-16T10:18:37.654Z,100772.22
2023-02-16T10:21:11.321Z,100771.31
2023-02-16T10:23:57.804Z,100771.53
2023-02-16T10:26:44.295Z,100770.97
2023-02-16T10:29:25.507Z,100764.13
2023-02-16T10:32:13.689Z,100760.63
2023-02-16T10:34:50.985Z,100771.38
2023-02-16T10:37:31.217Z,100761.34
2023-02-16T10:40:41.535Z,100762.19
2023-02-16T10:43:27.330Z,100764.81
2023-02-16T10:46:00.983Z,100771.09
2023-02-16T10:48:28.199Z,100767.97
2023-02-16T10:51:16.828Z,100765.34
2023-02-16T10:53:43.853Z,100765.34
2023-02-16T10:56:45.867Z,100763.75
2023-02-16T10:59:22.825Z,100765.38
2023-02-16T11:01:54.219Z,100760.53
2023-02-16T11:04:49.673Z,100772.53
2023-02-16T11:07:22.361Z,100764.00
2023-02-16T11:09:55.578Z,100768.84
2023-02-16T11:12:25.952Z,100764.78
2023-02-16T11:15:06.714Z,100760.53
2023-02-16T11:18:08.306Z,100760.84
2023-02-16T11:20:35.228Z,100757.88
2023-02-16T11:23:21.585Z,100760.25
2023-02-16T11:26:03.226Z,100758.41
2023-02-16T11:28:33.922Z,100754.09
2023-02-16T11:31:30.450Z,100762.28
2023-02-16T11:34:05.882Z,100754.53
2023-02-16T11:36:39.397Z,100753.59
2023-02-16T11:39:23.328Z,100751.19
2023-02-16T11:41:53.692Z,100747.41
2023-02-16T11:44:32.908Z,100748.16
2023-02-16T11:47:04.347Z,100745.56
2023-02-16T11:49:39.303Z,100751.53
2023-02-16T11:52:30.749Z,100750.75
2023-02-16T11:55:00.913Z,100740.53
2023-02-16T11:57:39.125Z,100746.66
2023-02-16T12:00:19.208Z,100743.63
2023-02-16T12:03:06.338Z,100746.56
2023-02-16T12:05:55.957Z,100745.97
2023-02-16T12:08:37.823Z,100741.81
2023-02-16T12:11:13.265Z,100740.00
2023-02-16T12:13:59.181Z,100739.53
2023-02-16T12:16:52.881Z,100745.22
2023-02-16T12:19:54.718Z,100741.66
2023-02-16T12:22:46.530Z,100742.94
2023-02-16T12:25:39.371Z,100736.78
2023-02-16T12:28:17.639Z,100735.22
2023-02-16T12:31:07.412Z,100737.22
2023-02-16T12:33:43.184Z,100743.09
2023-02-16T12:36:28.633Z,100741.41
2023-02-16T12:39:17.892Z,100745.28
2023-02-16T12:42:09.668Z,100739.28
2023-02-16T12:44:48.492Z,100746.41
2023-02-16T12:47:32.478Z,100750.75
2023-02-16T12:50:03.808Z,100750.91
2023-02-16T12:52:43.835Z,100754.34
2023-02-16T12:55:13.429Z,100749.31
2023-02-16T12:57:49.658Z,100758.50
2023-02-16T13:00:25.754Z,100759.09
2023-02-16T13:03:30.670Z,100758.47
2023-02-16T13:06:03.544Z,100756.34
2023-02-16T13:08:51.504Z,100757.19
2023-02-16T13:11:40.686Z,100755.47
2023-02-16T13:14:20.355Z,100754.72
2023-02-16T13:17:03.134Z,100747.22
2023-02-16T13:19:31.035Z,100745.00
2023-02-16T13:22:19.493Z,100747.78
2023-02-16T13:25:01.894Z,100750.69
2023-02-16T13:27:45.830Z,100749.56
2023-02-16T13:30:51.080Z,100753.09
2023-02-16T13:33:37.791Z,100756.47
2023-02-16T13:36:23.246Z,100750.56
2023-02-16T13:39:10.562Z,100748.69
2023-02-16T13:41:40.198Z,100751.41
2023-02-16T13:44:13.804Z,100746.22
2023-02-16T13:46:46.863Z,100743.75
2023-02-16T13:49:46.768Z,100749.81
2023-02-16T13:52:31.773Z,100746.47
2023-02-16T13:55:01.574Z,100746.25
2023-02-16T13:57:52.676Z,100748.13
2023-02-16T14:00:37.160Z,100746.34
2023-02-16T14:03:38.151Z,100748.22
2023-02-16T14:06:33.095Z,100746.84
2023-02-16T14:09:15.849Z,100745.09
2023-02-16T14:11:59.561Z,100746.00
2023-02-16T14:14:34.092Z,100746.09
2023-02-16T14:17:19.271Z,100749.53
2023-02-16T14:20:05.321Z,100746.97
2023-02-16T14:22:52.926Z,100748.09
2023-02-16T14:25:22.987Z,100748.06
2023-02-16T14:27:58.891Z,100745.50
2023-02-16T14:30:35.012Z,100748.16
2023-02-16T14:33:16.836Z,100745.59
2023-02-16T14:35:47.650Z,100757.63
2023-02-16T14:38:28.966Z,100746.44
2023-02-16T14:41:13.868Z,100745.75
2023-02-16T14:43:47.819Z,100745.75
2023-02-16T14:46:45.222Z,100749.13
2023-02-16T14:49:38.369Z,100748.41
2023-02-16T14:52:11.425Z,100743.31
2023-02-16T14:54:59.533Z,100746.00
2023-02-16T14:57:26.942Z,100737.63
2023-02-16T15:00:14.523Z,100743.53
2023-02-16T15:02:55.970Z,100744.44
2023-02-16T15:05:28.818Z,100741.00
2023-02-16T15:08:09.796Z,100743.56
2023-02-16T15:10:39.693Z,100751.56
2023-02-16T15:13:06.829Z,100751.56
2023-02-16T15:15:45.951Z,100754.13
2023-02-16T15:18:17.379Z,100745.72
2023-02-16T15:20:47.100Z,100756.72
2023-02-16T15:23:26.871Z,100756.09
2023-02-16T15:26:08.372Z,100756.13
2023-02-16T15:28:38.105Z,100755.09
2023-02-16T15:31:08.699Z,100754.94
2023-02-16T15:33:41.963Z,100758.38
2023-02-16T15:36:14.433Z,100754.94
2023-02-16T15:38:51.451Z,100751.59
2023-02-16T15:41:32.521Z,100754.25
2023-02-16T15:44:02.550Z,100757.75
2023-02-16T15:46:38.689Z,100759.72
2023-02-16T15:49:32.732Z,100750.22
2023-02-16T15:52:01.075Z,100754.53
2023-02-16T15:54:35.671Z,100754.09
2023-02-16T15:57:16.109Z,100756.53
2023-02-16T15:59:49.038Z,100745.78
2023-02-16T16:02:33.439Z,100750.75
2023-02-16T16:05:04.192Z,100759.22
2023-02-16T16:07:36.365Z,100760.84
2023-02-16T16:10:20.802Z,100756.66
2023-02-16T16:12:50.312Z,100754.09
2023-02-16T16:15:23.744Z,100757.53
2023-02-16T16:17:53.070Z,100749.84
2023-02-16T16:20:32.160Z,100760.84
2023-02-16T16:23:00.505Z,100753.97
2023-02-16T16:25:28.759Z,100758.09
2023-02-16T16:27:56.983Z,100758.97
2023-02-16T16:30:23.922Z,100757.28
2023-02-16T16:33:13.044Z,100750.66
2023-02-16T16:35:43.725Z,100747.50
2023-02-16T16:38:37.616Z,100760.44
2023-02-16T16:41:05.439Z,100747.84
2023-02-16T16:43:36.696Z,100746.72
2023-02-16T16:46:18.813Z,100751.88
2023-02-16T16:48:50.751Z,100747.44
2023-02-16T16:51:21.266Z,100755.00
2023-02-16T16:53:57.510Z,100758.97
2023-02-16T16:56:24.984Z,100747.84
2023-02-16T16:58:54.082Z,100743.69
2023-02-16T17:01:21.800Z,100760.06
2023-02-16T17:03:49.615Z,100757.50
2023-02-16T17:06:18.655Z,100758.47
2023-02-16T17:08:46.257Z,100757.13
2023-02-16T17:11:17.445Z,100740.22
2023-02-16T17:13:44.431Z,100762.63
2023-02-16T17:16:17.591Z,100755.88
2023-02-16T17:18:44.652Z,100761.97
2023-02-16T17:21:13.774Z,100767.00
2023-02-16T17:23:50.368Z,100766.47
2023-02-16T17:26:19.716Z,100769.31
2023-02-16T17:28:46.750Z,100764.91
2023-02-16T17:31:13.869Z,100771.75
2023-02-16T17:33:40.984Z,100770.06
2023-02-16T17:36:08.965Z,100768.41
2023-02-16T17:38:37.160Z,100777.22
2023-02-16T17:41:04.332Z,100781.50
2023-02-16T17:43:31.502Z,100782.97
2023-02-16T17:46:01.379Z,100779.16
2023-02-16T17:48:30.528Z,100783.94
2023-02-16T17:50:58.543Z,100779.03
2023-02-16T17:53:27.148Z,100778.94
2023-02-16T17:55:56.343Z,100783.19
2023-02-16T17:58:25.493Z,100778.88
2023-02-16T18:00:52.833Z,100781.91
2023-02-16T18:03:20.132Z,100783.44
2023-02-16T18:05:47.083Z,100789.28
2023-02-16T18:08:14.437Z,100792.06
2023-02-16T18:10:48.855Z,100801.47
2023-02-16T18:13:16.680Z,100801.06
2023-02-16T18:15:47.499Z,100793.47
2023-02-16T18:18:18.311Z,100798.47
2023-02-16T18:20:45.842Z,100795.50
2023-02-16T18:23:13.210Z,100790.69
2023-02-16T18:25:43.138Z,100805.28
2023-02-16T18:28:18.518Z,100808.72
2023-02-16T18:30:50.779Z,100801.28
2023-02-16T18:33:21.239Z,100815.84
2023-02-16T18:35:50.570Z,100812.50
2023-02-16T18:38:18.891Z,100807.44
2023-02-16T18:40:48.437Z,100814.25
2023-02-16T18:43:15.318Z,100806.72
2023-02-16T18:45:42.650Z,100816.00
2023-02-16T18:48:09.926Z,100816.75
2023-02-16T18:50:36.846Z,100810.00
2023-02-16T18:53:04.414Z,100810.97
2023-02-16T18:55:35.239Z,100811.59
2023-02-16T18:58:07.296Z,100817.50
2023-02-16T19:00:34.950Z,100814.22
2023-02-16T19:03:02.150Z,100808.38
2023-02-16T19:05:29.361Z,100809.31
2023-02-16T19:07:56.276Z,100800.00
2023-02-16T19:10:23.435Z,100812.69
2023-02-16T19:12:50.797Z,100798.25
2023-02-16T19:15:17.808Z,100799.84
2023-02-16T19:17:44.755Z,100799.72
2023-02-16T19:20:14.663Z,100795.44
2023-02-16T19:22:41.658Z,100793.78
2023-02-16T19:25:08.949Z,100796.44
2023-02-16T19:27:44.417Z,100794.75
2023-02-16T19:30:15.160Z,100793.16
2023-02-16T19:32:42.255Z,100787.38
2023-02-16T19:35:13.856Z,100792.28
2023-02-16T19:37:40.841Z,100793.19
2023-02-16T19:40:10.440Z,100794.91
2023-02-16T19:42:38.349Z,100787.94
2023-02-16T19:45:05.690Z,100787.84
2023-02-16T19:47:33.038Z,100789.41
2023-02-16T19:50:00.135Z,100793.63
2023-02-16T19:52:27.183Z,100790.97
2023-02-16T19:54:54.098Z,100790.97
2023-02-16T19:57:21.492Z,100796.28
2023-02-16T19:59:48.382Z,100793.75
2023-02-16T20:02:15.665Z,100791.31
2023-02-16T20:04:44.396Z,100789.13
2023-02-16T20:07:11.683Z,100791.91
2023-02-16T20:09:38.954Z,100790.13
2023-02-16T20:12:06.431Z,100793.41
2023-02-16T20:14:33.479Z,100788.16
2023-02-16T20:17:02.194Z,100788.09
2023-02-16T20:19:29.389Z,100792.38
2023-02-16T20:21:56.408Z,100790.69
2023-02-16T20:24:23.462Z,100786.34
2023-02-16T20:26:52.203Z,100791.38
2023-02-16T20:29:20.936Z,100787.00
2023-02-16T20:31:53.748Z,100784.38
2023-02-16T20:34:21.125Z,100782.59
2023-02-16T20:36:48.733Z,100791.00
2023-02-16T20:39:16.128Z,100769.97
2023-02-16T20:41:43.899Z,100783.31
2023-02-16T20:44:11.624Z,100792.56
2023-02-16T20:46:40.047Z,100789.22
2023-02-16T20:49:07.849Z,100781.97
2023-02-16T20:51:36.570Z,100775.28
2023-02-16T20:54:04.847Z,100772.78
2023-02-16T20:56:31.771Z,100779.84
2023-02-16T20:58:59.122Z,100778.97
2023-02-16T21:01:37.293Z,100781.34
2023-02-16T21:04:05.322Z,100778.75
2023-02-16T21:06:32.892Z,100775.25
2023-02-16T21:08:59.929Z,100768.44
2023-02-16T21:11:27.278Z,100771.97
2023-02-16T21:13:54.747Z,100761.84
2023-02-16T21:16:22.000Z,100767.88
2023-02-16T21:18:49.629Z,100767.13
2023-02-16T21:21:17.347Z,100766.91
2023-02-16T21:23:48.115Z,100772.03
2023-02-16T21:26:16.014Z,100768.78
2023-02-16T21:28:43.319Z,100770.44
2023-02-16T21:31:16.935Z,100769.66
2023-02-16T21:33:44.133Z,100763.53
2023-02-16T21:36:18.691Z,100771.78
2023-02-16T21:38:45.760Z,100775.19
2023-02-16T21:41:26.235Z,100774.25
2023-02-16T21:44:05.844Z,100779.16
2023-02-16T21:46:37.266Z,100771.50
2023-02-16T21:49:06.445Z,100775.91
2023-02-16T21:51:36.353Z,100769.31
2023-02-16T21:54:06.261Z,100755.56
2023-02-16T21:56:43.698Z,100770.88
2023-02-16T21:59:13.565Z,100771.81
2023-02-16T22:01:43.284Z,100767.72
2023-02-16T22:04:12.944Z,100766.47
2023-02-16T22:06:43.664Z,100758.56
2023-02-16T22:09:14.389Z,100768.91
2023-02-16T22:11:41.796Z,100772.28
2023-02-16T22:14:08.782Z,100774.72
2023-02-16T22:16:37.308Z,100778.75
2023-02-16T22:19:23.161Z,100776.03
2023-02-16T22:21:51.440Z,100771.00
2023-02-16T22:24:19.377Z,100767.56
2023-02-16T22:26:49.276Z,100769.28
2023-02-16T22:29:17.266Z,100768.38
2023-02-16T22:31:47.060Z,100773.53
2023-02-16T22:34:17.521Z,100769.22
2023-02-16T22:36:45.940Z,100760.59
2023-02-16T22:39:14.888Z,100762.13
2023-02-16T22:41:42.179Z,100759.44
2023-02-16T22:44:11.382Z,100767.03
2023-02-16T22:46:38.381Z,100758.44
2023-02-16T22:49:05.309Z,100761.03
2023-02-16T22:51:32.702Z,100748.41
2023-02-16T22:54:01.754Z,100755.22
2023-02-16T22:56:30.009Z,100751.72
2023-02-16T22:58:58.051Z,100758.44
2023-02-16T23:01:27.035Z,100745.69
2023-02-16T23:03:58.868Z,100753.28
2023-02-16T23:06:37.122Z,100754.28
2023-02-16T23:09:07.573Z,100749.34
2023-02-16T23:11:35.985Z,100748.56
2023-02-16T23:14:03.278Z,100746.75
2023-02-16T23:16:30.661Z,100748.34
2023-02-16T23:19:00.184Z,100742.31
2023-02-16T23:21:30.353Z,100747.44
2023-02-16T23:23:57.972Z,100747.34
2023-02-16T23:26:27.773Z,100748.47
2023-02-16T23:28:57.233Z,100746.66
2023-02-16T23:31:24.215Z,100744.06
2023-02-16T23:33:51.829Z,100743.16
2023-02-16T23:36:18.820Z,100744.88
2023-02-16T23:38:45.712Z,100740.09
2023-02-16T23:41:14.706Z,100749.31
2023-02-16T23:43:42.303Z,100740.84
2023-02-16T23:46:10.080Z,100739.06
2023-02-16T23:48:38.647Z,100736.69
2023-02-16T23:51:05.813Z,100739.91
2023-02-16T23:53:32.982Z,100742.34
2023-02-16T23:56:00.974Z,100745.63
2023-02-16T23:58:29.635Z,100747.47
